Time;durP1;ratioP1;P1;durP2;ratioP2;P2;SDS_P1;SDS_P2;PMS_P1;PMS_P2;Temp;Humidity;BMP_temperature;BMP_pressure;BME280_temperature;BME280_humidity;BME280_pressure;Samples;Min_cycle;Max_cycle;Signal;HPM_P1;HPM_P2
2022/03/18 00:02:24;;;;;;;35.37;24.20;;;;;;;;;;5015600;28;20261;-91
2022/03/18 00:04:51;;;;;;;36.83;25.30;;;;;;;;;;5029644;28;20230;-91
2022/03/18 00:07:20;;;;;;;38.43;25.00;;;;;;;;;;5023387;28;20248;-92
2022/03/18 00:09:47;;;;;;;35.63;24.40;;;;;;;;;;5031627;28;20215;-90
2022/03/18 00:12:14;;;;;;;39.33;24.23;;;;;;;;;;5031464;28;20643;-91
2022/03/18 00:14:42;;;;;;;35.27;24.83;;;;;;;;;;5029809;28;20244;-92
2022/03/18 00:17:09;;;;;;;39.10;25.67;;;;;;;;;;5012197;28;20220;-92
2022/03/18 00:19:39;;;;;;;37.03;24.20;;;;;;;;;;5019604;28;20210;-92
2022/03/18 00:22:07;;;;;;;37.60;24.47;;;;;;;;;;5033539;28;20203;-91
2022/03/18 00:24:35;;;;;;;36.60;23.37;;;;;;;;;;5026838;28;20223;-92
2022/03/18 00:27:03;;;;;;;33.33;22.00;;;;;;;;;;5035094;28;20203;-91
2022/03/18 00:29:31;;;;;;;33.33;22.03;;;;;;;;;;5044497;28;20335;-88
2022/03/18 00:31:58;;;;;;;32.50;22.47;;;;;;;;;;5038928;28;20697;-88
2022/03/18 00:34:26;;;;;;;37.83;22.93;;;;;;;;;;5047237;28;20272;-88
2022/03/18 00:36:54;;;;;;;35.40;23.53;;;;;;;;;;5055894;28;20211;-88
2022/03/18 00:39:22;;;;;;;35.10;22.67;;;;;;;;;;5050377;28;20203;-88
2022/03/18 00:41:49;;;;;;;36.97;24.17;;;;;;;;;;5023534;28;20206;-91
2022/03/18 00:44:17;;;;;;;34.17;22.17;;;;;;;;;;5034705;28;20590;-92
2022/03/18 00:46:44;;;;;;;36.07;23.13;;;;;;;;;;5041677;28;20205;-91
2022/03/18 00:52:05;;;;;;;35.77;24.37;;;;;;;;;;5017889;28;20567;-91
2022/03/18 00:54:32;;;;;;;37.27;24.23;;;;;;;;;;5034519;28;20222;-92
2022/03/18 00:56:59;;;;;;;34.40;24.17;;;;;;;;;;5039901;28;20263;-91
2022/03/18 00:59:27;;;;;;;35.97;24.40;;;;;;;;;;5026429;28;20206;-91
2022/03/18 01:01:54;;;;;;;33.27;22.97;;;;;;;;;;5035074;28;20610;-92
2022/03/18 01:04:22;;;;;;;33.57;22.30;;;;;;;;;;5030453;28;20231;-91
2022/03/18 01:06:52;;;;;;;30.77;21.27;;;;;;;;;;5040675;28;20203;-92
2022/03/18 01:09:21;;;;;;;34.37;22.17;;;;;;;;;;5019932;28;20680;-91
2022/03/18 01:11:49;;;;;;;34.00;22.40;;;;;;;;;;5015854;28;20811;-92
2022/03/18 01:14:17;;;;;;;34.97;21.60;;;;;;;;;;5013964;28;20232;-92
2022/03/18 01:16:44;;;;;;;35.90;23.30;;;;;;;;;;5020145;28;20207;-91
2022/03/18 01:19:12;;;;;;;38.37;23.30;;;;;;;;;;5022267;28;20203;-90
2022/03/18 01:21:39;;;;;;;35.43;24.00;;;;;;;;;;5017807;28;20202;-91
2022/03/18 01:24:07;;;;;;;33.63;23.27;;;;;;;;;;5022209;28;20222;-92
2022/03/18 01:26:36;;;;;;;36.13;23.53;;;;;;;;;;5018779;28;20203;-91
2022/03/18 01:29:04;;;;;;;38.47;24.20;;;;;;;;;;5014312;28;20218;-92
2022/03/18 01:31:31;;;;;;;33.87;22.87;;;;;;;;;;5032743;28;20206;-90
2022/03/18 01:33:59;;;;;;;37.23;24.73;;;;;;;;;;5024818;28;20230;-92
2022/03/18 01:36:26;;;;;;;36.50;23.23;;;;;;;;;;5013504;28;20219;-91
2022/03/18 01:38:53;;;;;;;35.23;22.93;;;;;;;;;;5016334;28;20306;-92
2022/03/18 01:41:21;;;;;;;34.90;23.10;;;;;;;;;;5035904;28;20207;-92
2022/03/18 01:43:50;;;;;;;37.17;24.40;;;;;;;;;;5016724;28;20225;-91
2022/03/18 01:46:18;;;;;;;33.63;23.97;;;;;;;;;;5013989;28;20215;-93
2022/03/18 01:48:46;;;;;;;37.07;24.40;;;;;;;;;;5036575;28;20298;-92
2022/03/18 01:51:15;;;;;;;34.33;23.03;;;;;;;;;;5021479;28;20200;-92
2022/03/18 01:53:43;;;;;;;37.87;25.00;;;;;;;;;;5029751;28;20229;-91
2022/03/18 01:56:11;;;;;;;36.40;24.63;;;;;;;;;;5033808;28;20272;-92
2022/03/18 01:58:38;;;;;;;35.77;23.57;;;;;;;;;;5032221;28;20200;-89
2022/03/18 02:01:13;;;;;;;31.43;20.63;;;;;;;;;;5024592;28;20225;-91
2022/03/18 02:03:40;;;;;;;33.73;21.63;;;;;;;;;;5034665;28;20230;-88
2022/03/18 02:06:08;;;;;;;34.80;22.90;;;;;;;;;;5034985;28;20210;-92
2022/03/18 02:08:35;;;;;;;32.23;22.33;;;;;;;;;;5034816;28;20256;-92
2022/03/18 02:11:02;;;;;;;37.43;23.03;;;;;;;;;;5022651;28;20218;-90
2022/03/18 02:13:31;;;;;;;34.27;22.20;;;;;;;;;;5013334;28;20230;-92
2022/03/18 02:16:02;;;;;;;31.90;20.80;;;;;;;;;;5032201;28;20587;-92
2022/03/18 02:18:31;;;;;;;35.57;21.70;;;;;;;;;;5031482;28;20235;-91
2022/03/18 02:20:59;;;;;;;33.90;20.43;;;;;;;;;;5036536;28;20257;-93
2022/03/18 02:23:27;;;;;;;34.23;22.30;;;;;;;;;;5032130;28;20227;-91
2022/03/18 02:25:55;;;;;;;31.17;20.07;;;;;;;;;;5032127;28;20225;-88
2022/03/18 02:28:22;;;;;;;31.60;21.20;;;;;;;;;;5034542;28;20247;-92
2022/03/18 02:30:49;;;;;;;29.70;19.07;;;;;;;;;;5033686;28;20632;-91
2022/03/18 02:33:17;;;;;;;31.47;18.93;;;;;;;;;;5013131;28;20223;-92
2022/03/18 02:35:44;;;;;;;25.87;18.33;;;;;;;;;;5031321;28;20221;-92
2022/03/18 02:38:11;;;;;;;28.83;17.87;;;;;;;;;;5025818;28;20203;-91
2022/03/18 02:40:40;;;;;;;26.43;16.93;;;;;;;;;;5024942;28;20222;-92
2022/03/18 02:43:08;;;;;;;27.87;18.20;;;;;;;;;;5012757;28;20624;-91
2022/03/18 02:45:35;;;;;;;26.30;16.00;;;;;;;;;;5041306;28;20202;-92
2022/03/18 02:48:03;;;;;;;27.20;17.90;;;;;;;;;;5029985;28;20577;-92
2022/03/18 02:50:30;;;;;;;28.80;18.00;;;;;;;;;;5013285;28;20211;-92
2022/03/18 02:52:57;;;;;;;27.10;16.93;;;;;;;;;;5031692;28;20241;-92
2022/03/18 02:55:24;;;;;;;26.33;17.20;;;;;;;;;;5039283;28;20268;-92
2022/03/18 02:57:53;;;;;;;25.23;15.93;;;;;;;;;;5026121;28;20211;-91
2022/03/18 03:00:25;;;;;;;26.33;17.63;;;;;;;;;;5017520;28;20204;-91
2022/03/18 03:02:52;;;;;;;26.50;16.97;;;;;;;;;;5014487;28;20239;-91
2022/03/18 03:08:14;;;;;;;26.60;16.93;;;;;;;;;;5023329;28;20209;-91
2022/03/18 03:10:42;;;;;;;23.07;16.00;;;;;;;;;;5032227;28;20248;-92
2022/03/18 03:13:11;;;;;;;27.10;18.23;;;;;;;;;;5021266;28;20259;-92
2022/03/18 03:15:39;;;;;;;25.90;17.13;;;;;;;;;;5022844;28;20203;-90
2022/03/18 03:18:06;;;;;;;24.27;15.70;;;;;;;;;;5012243;28;20230;-91
2022/03/18 03:20:34;;;;;;;26.90;17.40;;;;;;;;;;5012632;28;20612;-92
2022/03/18 03:23:01;;;;;;;24.63;16.70;;;;;;;;;;5017824;28;20227;-91
2022/03/18 03:25:29;;;;;;;25.17;16.20;;;;;;;;;;5024435;28;20229;-92
2022/03/18 03:27:56;;;;;;;25.53;16.60;;;;;;;;;;5030409;28;20202;-93
2022/03/18 03:30:26;;;;;;;27.37;16.30;;;;;;;;;;5026099;28;20269;-92
2022/03/18 03:32:53;;;;;;;27.23;17.33;;;;;;;;;;5021215;28;20281;-92
2022/03/18 03:35:21;;;;;;;24.33;16.27;;;;;;;;;;5024610;28;20206;-93
2022/03/18 03:37:48;;;;;;;27.97;17.90;;;;;;;;;;5021764;28;20206;-92
2022/03/18 03:40:15;;;;;;;25.47;16.90;;;;;;;;;;5032126;28;20206;-92
2022/03/18 03:42:43;;;;;;;30.43;17.50;;;;;;;;;;5021084;28;20215;-91
2022/03/18 03:45:11;;;;;;;27.03;17.77;;;;;;;;;;5018616;28;20249;-91
2022/03/18 03:47:40;;;;;;;29.13;18.47;;;;;;;;;;5021659;28;20203;-91
2022/03/18 03:50:08;;;;;;;28.40;18.10;;;;;;;;;;5032039;28;20269;-91
2022/03/18 03:52:36;;;;;;;25.67;16.80;;;;;;;;;;5015261;28;20741;-91
2022/03/18 03:55:03;;;;;;;30.30;19.33;;;;;;;;;;5025650;28;20275;-91
2022/03/18 03:57:30;;;;;;;26.77;18.10;;;;;;;;;;5031997;28;20207;-90
2022/03/18 03:59:58;;;;;;;31.37;18.60;;;;;;;;;;5034502;28;20723;-92
2022/03/18 04:02:27;;;;;;;29.63;18.10;;;;;;;;;;5025725;28;20728;-92
2022/03/18 04:04:57;;;;;;;29.07;17.33;;;;;;;;;;5031529;28;20239;-92
2022/03/18 04:07:24;;;;;;;29.57;17.80;;;;;;;;;;5029474;28;20199;-91
2022/03/18 04:09:53;;;;;;;27.17;16.73;;;;;;;;;;5016226;28;20214;-92
2022/03/18 04:12:21;;;;;;;27.90;18.53;;;;;;;;;;5029422;28;20209;-92
2022/03/18 04:14:49;;;;;;;25.67;16.33;;;;;;;;;;5032826;28;20301;-92
2022/03/18 04:17:17;;;;;;;30.97;18.37;;;;;;;;;;5035623;28;20221;-91
2022/03/18 04:19:44;;;;;;;23.37;16.27;;;;;;;;;;5030466;28;20227;-91
2022/03/18 04:22:13;;;;;;;27.63;16.63;;;;;;;;;;5026775;28;20253;-92
2022/03/18 04:24:40;;;;;;;27.87;17.70;;;;;;;;;;5032575;28;20215;-91
2022/03/18 04:27:08;;;;;;;28.27;17.93;;;;;;;;;;5035284;28;20214;-92
2022/03/18 04:29:35;;;;;;;27.93;18.03;;;;;;;;;;5028852;28;20203;-92
2022/03/18 04:32:02;;;;;;;29.90;17.83;;;;;;;;;;5024335;28;20238;-90
2022/03/18 04:34:29;;;;;;;27.10;16.90;;;;;;;;;;5025780;28;20214;-92
2022/03/18 04:36:57;;;;;;;26.73;16.90;;;;;;;;;;5035209;28;20214;-91
2022/03/18 04:39:25;;;;;;;27.17;15.93;;;;;;;;;;5020295;28;20285;-92
2022/03/18 04:41:53;;;;;;;29.27;17.93;;;;;;;;;;5016584;28;20269;-91
2022/03/18 04:44:21;;;;;;;29.53;18.10;;;;;;;;;;5034414;28;20234;-89
2022/03/18 04:46:48;;;;;;;28.30;17.77;;;;;;;;;;5032636;28;20625;-92
2022/03/18 04:49:16;;;;;;;26.87;16.43;;;;;;;;;;5020665;28;20230;-91
2022/03/18 04:51:44;;;;;;;28.67;18.00;;;;;;;;;;5014837;28;20254;-91
2022/03/18 04:54:11;;;;;;;28.97;18.20;;;;;;;;;;5010088;28;20276;-91
2022/03/18 04:59:24;;;;;;;27.53;17.37;;;;;;;;;;5025107;28;20205;-91
2022/03/18 05:01:51;;;;;;;26.10;15.30;;;;;;;;;;5031110;28;20276;-91
2022/03/18 05:04:19;;;;;;;29.97;17.47;;;;;;;;;;5024986;28;20295;-91
2022/03/18 05:06:47;;;;;;;30.87;16.93;;;;;;;;;;5018805;28;20646;-93
2022/03/18 05:09:14;;;;;;;27.17;16.17;;;;;;;;;;5019346;28;20199;-91
2022/03/18 05:11:43;;;;;;;31.43;17.90;;;;;;;;;;5024031;28;20206;-90
2022/03/18 05:14:10;;;;;;;27.57;17.33;;;;;;;;;;5013536;28;20219;-91
2022/03/18 05:16:37;;;;;;;30.23;17.50;;;;;;;;;;5014695;28;20199;-91
2022/03/18 05:19:04;;;;;;;33.70;18.97;;;;;;;;;;5021495;28;20203;-92
2022/03/18 05:21:32;;;;;;;27.57;17.50;;;;;;;;;;5020314;28;20230;-91
2022/03/18 05:23:59;;;;;;;28.07;17.20;;;;;;;;;;5023778;28;20226;-92
2022/03/18 05:26:27;;;;;;;26.80;18.00;;;;;;;;;;5030191;28;20257;-92
2022/03/18 05:28:56;;;;;;;31.47;19.17;;;;;;;;;;5024449;28;20234;-90
2022/03/18 05:31:25;;;;;;;30.13;17.67;;;;;;;;;;5026475;28;20309;-91
2022/03/18 05:33:54;;;;;;;28.80;18.20;;;;;;;;;;5015114;28;20222;-91
2022/03/18 05:36:21;;;;;;;31.37;17.57;;;;;;;;;;5024221;28;20203;-90
2022/03/18 05:38:49;;;;;;;31.50;18.90;;;;;;;;;;5027394;28;20256;-91
2022/03/18 05:41:16;;;;;;;20.40;10.50;;;;;;;;;;5015638;28;20198;-91
2022/03/18 05:43:43;;;;;;;29.67;20.40;;;;;;;;;;5029577;28;20281;-91
2022/03/18 05:46:12;;;;;;;33.10;19.90;;;;;;;;;;5031423;28;20199;-91
2022/03/18 05:48:40;;;;;;;27.90;18.27;;;;;;;;;;5029987;28;20199;-92
2022/03/18 05:51:08;;;;;;;30.67;18.07;;;;;;;;;;5010585;28;20206;-92
2022/03/18 05:53:35;;;;;;;30.07;18.10;;;;;;;;;;5017980;28;20222;-91
2022/03/18 05:59:02;;;;;;;27.10;17.83;;;;;;;;;;4991598;28;20650;-93
2022/03/18 06:01:31;;;;;;;32.73;20.00;;;;;;;;;;4990284;28;20259;-91
2022/03/18 06:03:58;;;;;;;32.37;18.83;;;;;;;;;;5006418;28;20625;-92
2022/03/18 06:06:26;;;;;;;30.97;18.30;;;;;;;;;;5023091;28;20294;-92
2022/03/18 06:11:49;;;;;;;34.13;18.80;;;;;;;;;;5021824;28;20195;-91
2022/03/18 06:14:18;;;;;;;31.40;19.10;;;;;;;;;;5023456;28;20646;-91
2022/03/18 06:16:47;;;;;;;38.97;22.33;;;;;;;;;;5022666;28;20206;-91
2022/03/18 06:19:14;;;;;;;30.80;18.87;;;;;;;;;;5028154;28;20568;-91
2022/03/18 06:21:47;;;;;;;30.80;19.57;;;;;;;;;;5026898;28;20202;-91
2022/03/18 06:24:15;;;;;;;33.63;19.73;;;;;;;;;;5028385;28;20218;-91
2022/03/18 06:26:42;;;;;;;30.70;18.63;;;;;;;;;;5016259;28;20258;-88
2022/03/18 06:29:10;;;;;;;31.73;18.50;;;;;;;;;;5013100;28;20215;-91
2022/03/18 06:31:39;;;;;;;32.77;20.43;;;;;;;;;;5021838;28;20198;-91
2022/03/18 06:34:07;;;;;;;33.20;20.53;;;;;;;;;;5030801;28;20226;-92
2022/03/18 06:36:35;;;;;;;32.67;19.57;;;;;;;;;;5032956;28;20214;-91
2022/03/18 06:39:03;;;;;;;33.53;20.30;;;;;;;;;;5026555;28;20206;-92
2022/03/18 06:41:31;;;;;;;34.50;21.27;;;;;;;;;;5030150;28;20229;-91
2022/03/18 06:43:58;;;;;;;33.23;19.73;;;;;;;;;;5021831;28;20334;-91
2022/03/18 06:46:26;;;;;;;27.73;16.27;;;;;;;;;;5019871;28;20257;-92
2022/03/18 06:48:53;;;;;;;32.00;19.80;;;;;;;;;;5027448;28;20276;-92
2022/03/18 06:51:22;;;;;;;31.60;19.53;;;;;;;;;;5031459;28;20210;-92
2022/03/18 06:53:49;;;;;;;29.80;19.20;;;;;;;;;;5012361;28;20685;-92
2022/03/18 06:56:17;;;;;;;33.73;20.20;;;;;;;;;;5013851;28;20389;-92
2022/03/18 06:58:44;;;;;;;29.60;16.63;;;;;;;;;;5028494;28;20273;-89
2022/03/18 07:01:11;;;;;;;35.20;20.33;;;;;;;;;;5025013;28;20207;-92
2022/03/18 07:03:39;;;;;;;34.67;20.77;;;;;;;;;;5028863;28;20266;-91
2022/03/18 07:06:07;;;;;;;31.17;19.07;;;;;;;;;;5032049;28;20206;-90
2022/03/18 07:08:35;;;;;;;31.10;17.53;;;;;;;;;;5031708;28;20622;-91
2022/03/18 07:11:13;;;;;;;34.23;20.87;;;;;;;;;;5025781;28;20263;-91
2022/03/18 07:13:41;;;;;;;34.57;20.60;;;;;;;;;;5030034;28;20229;-92
2022/03/18 07:18:53;;;;;;;35.17;20.57;;;;;;;;;;5043246;28;20276;-91
2022/03/18 07:21:20;;;;;;;36.03;21.33;;;;;;;;;;5033450;28;20210;-91
2022/03/18 07:23:49;;;;;;;31.10;18.27;;;;;;;;;;5019474;28;20736;-91
2022/03/18 07:26:17;;;;;;;37.43;20.77;;;;;;;;;;5048048;28;20195;-89
2022/03/18 07:28:44;;;;;;;31.67;20.57;;;;;;;;;;5045538;28;20513;-91
2022/03/18 07:31:11;;;;;;;33.30;18.53;;;;;;;;;;5042108;28;20218;-90
2022/03/18 07:33:39;;;;;;;31.67;18.97;;;;;;;;;;5043191;28;20235;-89
2022/03/18 07:36:06;;;;;;;30.13;18.40;;;;;;;;;;5035391;28;20222;-89
2022/03/18 07:38:33;;;;;;;37.40;21.80;;;;;;;;;;5033148;28;20723;-88
2022/03/18 07:41:02;;;;;;;36.87;21.17;;;;;;;;;;5040656;28;20217;-88
2022/03/18 07:43:30;;;;;;;31.40;19.23;;;;;;;;;;5015333;28;20629;-89
2022/03/18 07:45:57;;;;;;;34.13;21.63;;;;;;;;;;5032260;28;20211;-88
2022/03/18 07:48:26;;;;;;;31.97;19.53;;;;;;;;;;5015576;28;20203;-89
2022/03/18 07:50:54;;;;;;;25.93;15.07;;;;;;;;;;5023725;28;20203;-89
2022/03/18 07:53:22;;;;;;;35.20;19.97;;;;;;;;;;5035734;28;20280;-89
2022/03/18 07:55:49;;;;;;;36.30;22.23;;;;;;;;;;5030650;28;20230;-89
2022/03/18 07:58:18;;;;;;;36.40;23.53;;;;;;;;;;5029713;28;20207;-89
2022/03/18 08:00:45;;;;;;;37.57;21.23;;;;;;;;;;5035907;28;20627;-88
2022/03/18 08:03:13;;;;;;;31.00;18.20;;;;;;;;;;5028884;28;20249;-88
2022/03/18 08:05:41;;;;;;;31.77;19.90;;;;;;;;;;5023547;28;20207;-89
2022/03/18 08:08:08;;;;;;;38.67;22.43;;;;;;;;;;5029476;28;20206;-88
2022/03/18 08:10:42;;;;;;;34.63;22.13;;;;;;;;;;5033748;28;20203;-89
2022/03/18 08:13:09;;;;;;;35.37;21.20;;;;;;;;;;5029931;28;20231;-89
2022/03/18 08:15:38;;;;;;;29.30;17.33;;;;;;;;;;5022637;28;20639;-89
2022/03/18 08:18:06;;;;;;;36.00;24.10;;;;;;;;;;5030362;28;20256;-88
2022/03/18 08:20:39;;;;;;;38.43;21.57;;;;;;;;;;5030711;28;20261;-89
2022/03/18 08:23:07;;;;;;;35.83;22.10;;;;;;;;;;5036127;28;20317;-89
2022/03/18 08:25:34;;;;;;;34.10;21.50;;;;;;;;;;5031963;28;20257;-89
2022/03/18 08:28:01;;;;;;;33.93;21.27;;;;;;;;;;5053584;28;20206;-89
2022/03/18 08:30:29;;;;;;;31.87;18.47;;;;;;;;;;5033185;28;20208;-89
2022/03/18 08:32:58;;;;;;;30.53;16.87;;;;;;;;;;5025120;28;20230;-89
2022/03/18 08:35:25;;;;;;;33.10;20.67;;;;;;;;;;5022941;28;20210;-88
2022/03/18 08:37:58;;;;;;;29.37;17.27;;;;;;;;;;5039698;28;20214;-89
2022/03/18 08:40:26;;;;;;;30.90;18.63;;;;;;;;;;5027161;28;20211;-88
2022/03/18 08:42:54;;;;;;;27.83;16.60;;;;;;;;;;5014865;28;20231;-89
2022/03/18 08:45:21;;;;;;;32.40;16.90;;;;;;;;;;5023177;28;20206;-88
2022/03/18 08:48:04;;;;;;;34.57;19.87;;;;;;;;;;5017740;28;20265;-88
2022/03/18 08:50:32;;;;;;;31.20;17.10;;;;;;;;;;5031154;28;20712;-89
2022/03/18 08:52:59;;;;;;;26.27;16.10;;;;;;;;;;5034984;28;20230;-88
2022/03/18 08:55:27;;;;;;;25.07;14.90;;;;;;;;;;5026621;28;20744;-88
2022/03/18 08:57:54;;;;;;;31.13;17.67;;;;;;;;;;5029377;28;20210;-88
2022/03/18 09:00:22;;;;;;;28.07;17.00;;;;;;;;;;5015907;28;20270;-89
2022/03/18 09:02:50;;;;;;;23.40;13.80;;;;;;;;;;5019991;28;20207;-88
2022/03/18 09:05:19;;;;;;;26.00;14.53;;;;;;;;;;5024778;28;20257;-89
2022/03/18 09:07:47;;;;;;;31.57;19.20;;;;;;;;;;5025863;28;20603;-89
2022/03/18 09:10:15;;;;;;;33.47;19.20;;;;;;;;;;5016867;28;20306;-88
2022/03/18 09:12:45;;;;;;;31.27;20.33;;;;;;;;;;5026930;28;20240;-89
2022/03/18 09:15:12;;;;;;;31.07;17.27;;;;;;;;;;5018275;28;20223;-89
2022/03/18 09:17:40;;;;;;;35.60;20.90;;;;;;;;;;5024894;28;20649;-89
2022/03/18 09:20:08;;;;;;;34.30;21.63;;;;;;;;;;5023308;28;20207;-89
2022/03/18 09:22:36;;;;;;;31.00;20.07;;;;;;;;;;5025923;28;20211;-89
2022/03/18 09:25:04;;;;;;;33.90;20.80;;;;;;;;;;5014529;28;20245;-89
2022/03/18 09:27:31;;;;;;;31.13;18.20;;;;;;;;;;5023034;28;20195;-89
2022/03/18 09:30:00;;;;;;;31.63;19.00;;;;;;;;;;5023179;28;20662;-89
2022/03/18 09:32:27;;;;;;;35.33;20.40;;;;;;;;;;5019584;28;20223;-90
2022/03/18 09:34:55;;;;;;;32.23;20.87;;;;;;;;;;5013359;28;20251;-89
2022/03/18 09:37:22;;;;;;;31.13;20.03;;;;;;;;;;5027366;28;20228;-89
2022/03/18 09:39:51;;;;;;;32.10;20.37;;;;;;;;;;5024586;28;20669;-89
2022/03/18 09:42:18;;;;;;;31.87;20.23;;;;;;;;;;5012371;28;20199;-89
2022/03/18 09:44:46;;;;;;;33.57;21.43;;;;;;;;;;5026689;28;20284;-89
2022/03/18 09:47:13;;;;;;;25.93;17.23;;;;;;;;;;5029882;28;20231;-90
2022/03/18 09:49:40;;;;;;;29.67;19.93;;;;;;;;;;5027795;28;20210;-89
2022/03/18 09:52:08;;;;;;;25.77;16.97;;;;;;;;;;5021087;28;20627;-89
2022/03/18 09:54:35;;;;;;;28.13;17.50;;;;;;;;;;5028883;28;20215;-90
2022/03/18 09:57:04;;;;;;;24.07;15.43;;;;;;;;;;5009399;28;20270;-89
2022/03/18 09:59:32;;;;;;;27.13;17.90;;;;;;;;;;5024328;28;20210;-89
2022/03/18 10:02:18;;;;;;;26.13;17.10;;;;;;;;;;5020693;28;20262;-90
2022/03/18 10:04:52;;;;;;;30.70;18.87;;;;;;;;;;5026054;28;20257;-88
2022/03/18 10:07:21;;;;;;;23.80;15.13;;;;;;;;;;5029713;28;20225;-89
2022/03/18 10:09:49;;;;;;;24.70;17.87;;;;;;;;;;5040249;28;20480;-88
2022/03/18 10:12:34;;;;;;;28.13;19.07;;;;;;;;;;5037448;28;20211;-90
2022/03/18 10:15:10;;;;;;;22.07;12.40;;;;;;;;;;5032534;28;20638;-91
2022/03/18 10:17:46;;;;;;;24.57;17.03;;;;;;;;;;5034756;28;20198;-89
2022/03/18 10:20:26;;;;;;;25.73;17.93;;;;;;;;;;5028203;28;20229;-89
2022/03/18 10:22:53;;;;;;;23.47;14.00;;;;;;;;;;5024701;28;20234;-89
2022/03/18 10:25:38;;;;;;;23.50;15.57;;;;;;;;;;5015818;28;20208;-89
2022/03/18 10:28:07;;;;;;;28.53;17.87;;;;;;;;;;5030272;28;20306;-89
2022/03/18 10:30:34;;;;;;;25.77;16.23;;;;;;;;;;5029871;28;20203;-90
2022/03/18 10:33:02;;;;;;;27.40;18.43;;;;;;;;;;5027334;28;20645;-90
2022/03/18 10:38:27;;;;;;;27.67;18.07;;;;;;;;;;5020095;28;20214;-89
2022/03/18 10:40:55;;;;;;;26.93;17.17;;;;;;;;;;5026740;28;20585;-90
2022/03/18 10:43:24;;;;;;;27.80;18.30;;;;;;;;;;5027809;28;20306;-89
2022/03/18 10:46:04;;;;;;;25.50;17.90;;;;;;;;;;5028483;28;20202;-89
2022/03/18 10:48:33;;;;;;;22.70;12.70;;;;;;;;;;5029096;28;20207;-88
2022/03/18 10:51:05;;;;;;;20.37;14.17;;;;;;;;;;5024830;28;20270;-90
2022/03/18 10:53:33;;;;;;;22.90;14.40;;;;;;;;;;5021166;28;20318;-89
2022/03/18 10:56:01;;;;;;;25.43;14.13;;;;;;;;;;5014353;28;20230;-88
2022/03/18 10:58:32;;;;;;;25.57;15.23;;;;;;;;;;5030970;28;20238;-89
2022/03/18 11:01:01;;;;;;;24.33;16.47;;;;;;;;;;5047918;28;20210;-89
2022/03/18 11:03:28;;;;;;;24.23;16.60;;;;;;;;;;5031139;28;20237;-89
2022/03/18 11:05:58;;;;;;;25.20;15.47;;;;;;;;;;5025287;28;20626;-89
2022/03/18 11:08:29;;;;;;;25.23;15.33;;;;;;;;;;5017546;28;20202;-90
2022/03/18 11:11:18;;;;;;;27.60;18.03;;;;;;;;;;5019492;28;20225;-89
2022/03/18 11:13:56;;;;;;;24.27;14.77;;;;;;;;;;5023821;28;20343;-89
2022/03/18 11:16:25;;;;;;;19.90;12.27;;;;;;;;;;5021561;28;20215;-89
2022/03/18 11:18:52;;;;;;;14.80;7.60;;;;;;;;;;5016468;28;20402;-89
2022/03/18 11:21:38;;;;;;;25.93;16.80;;;;;;;;;;5027079;28;20899;-89
2022/03/18 11:24:08;;;;;;;23.70;15.33;;;;;;;;;;5038875;28;20225;-88
2022/03/18 11:26:36;;;;;;;28.37;17.80;;;;;;;;;;5029607;28;20241;-88
2022/03/18 11:29:08;;;;;;;22.20;13.80;;;;;;;;;;5012422;28;20534;-88
2022/03/18 11:31:36;;;;;;;23.70;16.30;;;;;;;;;;5025003;28;20221;-88
2022/03/18 11:34:10;;;;;;;22.27;14.37;;;;;;;;;;5029793;28;20248;-88
2022/03/18 11:36:38;;;;;;;26.00;16.37;;;;;;;;;;5031926;28;20280;-88
2022/03/18 11:39:07;;;;;;;27.37;17.00;;;;;;;;;;5032291;28;20211;-88
2022/03/18 11:41:48;;;;;;;27.07;17.33;;;;;;;;;;5031398;28;20233;-88
2022/03/18 11:44:40;;;;;;;26.27;17.37;;;;;;;;;;5023946;28;20222;-89
2022/03/18 11:47:28;;;;;;;21.87;15.50;;;;;;;;;;5031684;28;20202;-88
2022/03/18 11:49:56;;;;;;;21.00;14.03;;;;;;;;;;5030644;28;20587;-88
2022/03/18 11:52:24;;;;;;;27.73;14.23;;;;;;;;;;5051010;28;20198;-88
2022/03/18 11:54:58;;;;;;;22.40;14.00;;;;;;;;;;5025153;28;20281;-88
2022/03/18 11:57:29;;;;;;;24.57;13.93;;;;;;;;;;5016964;28;20317;-89
2022/03/18 12:00:00;;;;;;;26.27;16.37;;;;;;;;;;5020921;28;20234;-88
2022/03/18 12:02:33;;;;;;;23.43;15.97;;;;;;;;;;5037076;28;20225;-89
2022/03/18 12:05:01;;;;;;;24.43;17.67;;;;;;;;;;5036361;28;20202;-88
2022/03/18 12:07:47;;;;;;;25.03;19.13;;;;;;;;;;5039554;28;20245;-89
2022/03/18 12:10:15;;;;;;;23.80;14.80;;;;;;;;;;5023767;28;20240;-89
2022/03/18 12:12:44;;;;;;;24.73;17.13;;;;;;;;;;5026735;28;20203;-89
2022/03/18 12:15:17;;;;;;;25.97;15.93;;;;;;;;;;5021129;28;20237;-88
2022/03/18 12:17:51;;;;;;;27.63;17.73;;;;;;;;;;5015292;28;20221;-88
2022/03/18 12:20:19;;;;;;;24.60;17.20;;;;;;;;;;5026644;28;20210;-88
2022/03/18 12:22:47;;;;;;;22.67;14.90;;;;;;;;;;5031178;28;20234;-89
2022/03/18 12:25:16;;;;;;;16.77;10.67;;;;;;;;;;5027136;28;20261;-89
2022/03/18 12:27:44;;;;;;;26.20;16.23;;;;;;;;;;5035552;28;20692;-89
2022/03/18 12:30:14;;;;;;;18.53;11.60;;;;;;;;;;5027777;28;20210;-88
2022/03/18 12:33:05;;;;;;;25.17;15.43;;;;;;;;;;5030019;28;20209;-88
2022/03/18 12:35:33;;;;;;;22.90;15.23;;;;;;;;;;5024942;28;20269;-88
2022/03/18 12:38:04;;;;;;;28.20;16.57;;;;;;;;;;5026070;28;20227;-89
2022/03/18 12:40:32;;;;;;;25.23;15.93;;;;;;;;;;5026909;28;20309;-89
2022/03/18 12:43:01;;;;;;;25.17;15.83;;;;;;;;;;5026196;28;20229;-88
2022/03/18 12:45:31;;;;;;;23.67;11.87;;;;;;;;;;5020937;28;20219;-90
2022/03/18 12:48:08;;;;;;;23.50;16.00;;;;;;;;;;5034369;28;20211;-89
2022/03/18 12:50:37;;;;;;;26.57;16.00;;;;;;;;;;5026929;28;20654;-91
2022/03/18 12:53:11;;;;;;;25.03;16.57;;;;;;;;;;5022715;28;20245;-89
2022/03/18 12:55:38;;;;;;;10.97;6.87;;;;;;;;;;5035537;28;20233;-87
2022/03/18 12:58:06;;;;;;;24.27;17.63;;;;;;;;;;5028286;28;20262;-90
2022/03/18 13:00:41;;;;;;;22.50;15.70;;;;;;;;;;5018868;28;20237;-90
2022/03/18 13:03:09;;;;;;;19.40;11.20;;;;;;;;;;5033901;28;20250;-89
2022/03/18 13:05:37;;;;;;;24.83;16.70;;;;;;;;;;5032988;28;20230;-90
2022/03/18 13:08:07;;;;;;;23.80;16.80;;;;;;;;;;5032663;28;20207;-91
2022/03/18 13:10:35;;;;;;;24.70;16.10;;;;;;;;;;5030500;28;20297;-90
2022/03/18 13:13:22;;;;;;;26.27;15.47;;;;;;;;;;5026816;28;20272;-87
2022/03/18 13:16:02;;;;;;;24.27;15.13;;;;;;;;;;5035538;28;20541;-90
2022/03/18 13:18:32;;;;;;;21.73;14.57;;;;;;;;;;5033768;28;20198;-91
2022/03/18 13:21:17;;;;;;;27.27;15.30;;;;;;;;;;5034030;28;20210;-89
2022/03/18 13:23:45;;;;;;;23.63;15.63;;;;;;;;;;5027909;28;20747;-87
2022/03/18 13:26:14;;;;;;;23.97;14.37;;;;;;;;;;5030018;28;20684;-91
2022/03/18 13:28:42;;;;;;;21.30;15.53;;;;;;;;;;5014455;28;20234;-90
2022/03/18 13:33:58;;;;;;;22.30;15.97;;;;;;;;;;5034138;28;20241;-90
2022/03/18 13:36:28;;;;;;;23.40;14.57;;;;;;;;;;5031559;28;20304;-90
2022/03/18 13:38:55;;;;;;;22.43;14.67;;;;;;;;;;5032978;28;20217;-90
2022/03/18 13:41:23;;;;;;;11.90;8.00;;;;;;;;;;5029320;28;20210;-90
2022/03/18 13:43:57;;;;;;;23.07;15.93;;;;;;;;;;5027633;28;20290;-91
2022/03/18 13:46:28;;;;;;;21.67;14.93;;;;;;;;;;5026113;28;20293;-90
2022/03/18 13:49:10;;;;;;;23.77;14.07;;;;;;;;;;5022635;28;20230;-88
2022/03/18 13:51:39;;;;;;;9.43;5.47;;;;;;;;;;5014146;28;20617;-88
2022/03/18 13:54:08;;;;;;;13.77;8.00;;;;;;;;;;5027941;28;20224;-87
2022/03/18 13:56:35;;;;;;;21.00;13.37;;;;;;;;;;5022654;28;20315;-89
2022/03/18 13:59:12;;;;;;;10.07;6.23;;;;;;;;;;5019743;28;20303;-88
2022/03/18 14:01:56;;;;;;;16.83;10.53;;;;;;;;;;5036720;28;20272;-88
2022/03/18 14:04:23;;;;;;;22.33;14.00;;;;;;;;;;5027843;28;20234;-88
2022/03/18 14:06:54;;;;;;;20.43;11.97;;;;;;;;;;5032850;28;20253;-88
2022/03/18 14:09:21;;;;;;;24.47;16.40;;;;;;;;;;5044985;28;20206;-89
2022/03/18 14:14:36;;;;;;;19.07;13.73;;;;;;;;;;5032561;28;20308;-90
2022/03/18 14:17:13;;;;;;;22.73;15.57;;;;;;;;;;5028381;28;20357;-89
2022/03/18 14:19:47;;;;;;;18.73;11.33;;;;;;;;;;5016469;28;20654;-88
2022/03/18 14:22:34;;;;;;;22.90;13.70;;;;;;;;;;5026948;28;20632;-91
2022/03/18 14:25:02;;;;;;;24.33;13.33;;;;;;;;;;5038595;28;20263;-89
2022/03/18 14:27:30;;;;;;;21.33;12.47;;;;;;;;;;5024435;28;20249;-89
2022/03/18 14:29:58;;;;;;;18.27;11.63;;;;;;;;;;5030999;28;20727;-89
2022/03/18 14:32:26;;;;;;;20.17;13.60;;;;;;;;;;5032904;28;20260;-89
2022/03/18 14:34:55;;;;;;;17.57;12.13;;;;;;;;;;5019861;28;20241;-88
2022/03/18 14:37:25;;;;;;;17.97;12.00;;;;;;;;;;5038057;28;20223;-89
2022/03/18 14:39:53;;;;;;;19.73;14.27;;;;;;;;;;5023276;28;20358;-88
2022/03/18 14:42:20;;;;;;;18.70;12.33;;;;;;;;;;5013214;28;20234;-88
2022/03/18 14:44:47;;;;;;;19.53;12.07;;;;;;;;;;5023737;28;20230;-91
2022/03/18 14:47:21;;;;;;;20.13;12.13;;;;;;;;;;5022237;28;20207;-88
2022/03/18 14:49:50;;;;;;;20.17;13.07;;;;;;;;;;5032078;28;20213;-90
2022/03/18 14:52:17;;;;;;;22.10;14.30;;;;;;;;;;5029452;28;20260;-91
2022/03/18 14:57:30;;;;;;;20.70;14.03;;;;;;;;;;5032072;28;20221;-91